Clements, Illinois
Current Conditions -  °F | °C
As of 11:15 AM on Sunday 23 Nov 2014 (Local Time) from KIJX Reporting Station
Light Rain Light Rain  
Wind Chill: 56°   Ceiling: 1000
Heat Index: 56°   Visibility: 10mi
Dew Point: 53°   Wind: 14mph
Humidity: 89%   Direction: 150°SSE
Pressure: 29.55"   Gusts: 22mph
Location:  39.5952°N, 90.058°W
Report Text: KIJX 231715Z AUTO 15012G19KT 10SM -RA OVC010 13/12 A2955 RMK AO2 P0001 T01330115
Loading
Personal Weather Stations






























Interactive Weather Map New forecast layout! Learn more

10-Day Weather Forecast

Advertisements
Track Severe Weather on mobile